createdAt,value
2022-07-29T00:00:14.277Z,8.67
2022-07-29T00:00:45.246Z,8.67
2022-07-29T00:01:19.092Z,8.67
2022-07-29T00:01:49.156Z,8.67
2022-07-29T00:02:21.361Z,8.67
2022-07-29T00:02:53.402Z,8.67
2022-07-29T00:03:25.462Z,8.67
2022-07-29T00:03:57.257Z,8.67
2022-07-29T00:04:29.124Z,8.67
2022-07-29T00:05:01.616Z,8.67
2022-07-29T00:05:33.022Z,8.56
2022-07-29T00:06:05.107Z,8.56
2022-07-29T00:06:36.920Z,8.56
2022-07-29T00:07:10.824Z,8.56
2022-07-29T00:07:41.085Z,8.56
2022-07-29T00:08:12.973Z,8.56
2022-07-29T00:08:45.007Z,8.56
2022-07-29T00:09:17.877Z,8.56
2022-07-29T00:09:51.631Z,8.56
2022-07-29T00:10:21.091Z,8.56
2022-07-29T00:10:52.891Z,8.67
2022-07-29T00:11:24.905Z,8.67
2022-07-29T00:11:56.874Z,8.34
2022-07-29T00:12:28.832Z,8.34
2022-07-29T00:13:06.920Z,8.34
2022-07-29T00:13:33.032Z,8.34
2022-07-29T00:14:04.608Z,8.34
2022-07-29T00:14:37.625Z,8.34
2022-07-29T00:15:10.378Z,8.34
2022-07-29T00:15:41.402Z,8.34
2022-07-29T00:16:12.744Z,8.34
2022-07-29T00:16:45.402Z,8.34
2022-07-29T00:17:19.192Z,8.56
2022-07-29T00:17:49.560Z,8.56
2022-07-29T00:18:20.517Z,8.56
2022-07-29T00:18:53.382Z,8.56
2022-07-29T00:19:24.472Z,8.56
2022-07-29T00:19:57.370Z,8.56
2022-07-29T00:20:28.653Z,8.56
2022-07-29T00:21:01.215Z,8.56
2022-07-29T00:21:32.458Z,8.56
2022-07-29T00:22:05.159Z,8.56
2022-07-29T00:22:36.378Z,8.46
2022-07-29T00:23:09.223Z,8.46
2022-07-29T00:23:40.349Z,8.46
2022-07-29T00:24:15.727Z,8.46
2022-07-29T00:24:44.345Z,8.46
2022-07-29T00:25:17.501Z,8.46
2022-07-29T00:25:49.621Z,8.46
2022-07-29T00:26:21.157Z,8.46
2022-07-29T00:26:52.081Z,8.67
2022-07-29T00:27:24.988Z,8.67
2022-07-29T00:27:56.247Z,8.67
2022-07-29T00:28:28.881Z,8.67
2022-07-29T00:29:31.134Z,8.46
2022-07-29T00:29:49.033Z,8.46
2022-07-29T00:30:20.490Z,8.46
2022-07-29T00:30:53.240Z,8.46
2022-07-29T00:31:25.031Z,8.67
2022-07-29T00:31:59.348Z,8.67
2022-07-29T00:32:28.052Z,8.67
2022-07-29T00:32:59.898Z,8.67
2022-07-29T00:33:32.037Z,8.56
2022-07-29T00:34:03.857Z,8.56
2022-07-29T00:34:35.908Z,8.56
2022-07-29T00:35:08.028Z,8.56
2022-07-29T00:35:39.833Z,8.56
2022-07-29T00:36:11.868Z,8.56
2022-07-29T00:36:43.742Z,8.34
2022-07-29T00:37:15.788Z,8.34
2022-07-29T00:37:47.642Z,8.34
2022-07-29T00:38:19.753Z,8.34
2022-07-29T00:38:51.768Z,8.34
2022-07-29T00:39:23.664Z,8.34
2022-07-29T00:39:55.674Z,8.34
2022-07-29T00:40:27.847Z,8.34
2022-07-29T00:40:59.616Z,8.34
2022-07-29T00:41:31.491Z,8.34
2022-07-29T00:42:03.598Z,8.34
2022-07-29T00:42:37.729Z,8.34
2022-07-29T00:43:09.615Z,8.34
2022-07-29T00:43:39.526Z,8.34
2022-07-29T00:44:16.139Z,8.56
2022-07-29T00:44:43.540Z,8.56
2022-07-29T00:45:15.931Z,8.45
2022-07-29T00:45:48.201Z,8.45
2022-07-29T00:46:20.074Z,8.45
2022-07-29T00:46:52.294Z,8.45
2022-07-29T00:47:23.419Z,8.45
2022-07-29T00:47:56.986Z,8.45
2022-07-29T00:48:27.384Z,8.45
2022-07-29T00:49:00.416Z,8.45
2022-07-29T00:49:31.312Z,8.45
2022-07-29T00:50:04.570Z,8.45
2022-07-29T00:50:35.173Z,8.45
2022-07-29T00:51:08.194Z,8.45
2022-07-29T00:51:39.149Z,8.45
2022-07-29T00:52:12.019Z,8.45
2022-07-29T00:52:43.045Z,8.45
2022-07-29T00:53:16.792Z,8.45
2022-07-29T00:53:47.181Z,8.45
2022-07-29T00:54:20.072Z,8.45
2022-07-29T00:54:51.056Z,8.45
2022-07-29T00:55:24.081Z,8.45
2022-07-29T00:55:55.070Z,8.45
2022-07-29T00:56:27.756Z,8.45
2022-07-29T00:56:58.902Z,8.45
2022-07-29T00:57:31.955Z,8.45
2022-07-29T00:58:02.839Z,8.45
2022-07-29T00:58:36.611Z,8.45
2022-07-29T00:59:06.834Z,8.19
2022-07-29T00:59:39.647Z,8.19
2022-07-29T01:00:11.347Z,8.19
2022-07-29T01:00:43.703Z,8.19
2022-07-29T01:01:15.802Z,8.40
2022-07-29T01:01:47.806Z,8.40
2022-07-29T01:02:18.951Z,8.19
2022-07-29T01:02:51.677Z,8.19
2022-07-29T01:03:22.697Z,8.40
2022-07-29T01:03:56.319Z,8.40
2022-07-29T01:04:26.606Z,8.09
2022-07-29T01:04:59.762Z,8.09
2022-07-29T01:05:50.034Z,8.09
2022-07-29T01:06:03.670Z,8.09
2022-07-29T01:06:34.428Z,8.30
2022-07-29T01:07:07.308Z,8.30
2022-07-29T01:07:38.750Z,8.30
2022-07-29T01:08:11.990Z,8.30
2022-07-29T01:08:42.568Z,8.30
2022-07-29T01:09:15.196Z,8.30
2022-07-29T01:09:47.385Z,8.30
2022-07-29T01:10:19.669Z,8.30
2022-07-29T01:10:51.540Z,8.30
2022-07-29T01:11:23.393Z,8.30
2022-07-29T01:11:54.240Z,8.30
2022-07-29T01:12:29.097Z,8.30
2022-07-29T01:12:58.200Z,8.30
2022-07-29T01:13:31.167Z,8.30
2022-07-29T01:14:02.341Z,8.30
2022-07-29T01:14:37.052Z,8.30
2022-07-29T01:15:07.617Z,8.51
2022-07-29T01:15:39.002Z,8.51
2022-07-29T01:16:10.198Z,8.30
2022-07-29T01:16:43.240Z,8.30
2022-07-29T01:17:14.057Z,8.30
2022-07-29T01:17:52.495Z,8.30
2022-07-29T01:18:18.218Z,8.40
2022-07-29T01:18:50.878Z,8.40
2022-07-29T01:19:21.906Z,8.40
2022-07-29T01:19:55.013Z,8.40
2022-07-29T01:20:31.909Z,8.30
2022-07-29T01:20:58.779Z,8.30
2022-07-29T01:21:30.008Z,8.40
2022-07-29T01:22:02.719Z,8.40
2022-07-29T01:22:33.878Z,8.40
2022-07-29T01:23:06.648Z,8.40
2022-07-29T01:23:37.826Z,8.40
2022-07-29T01:24:10.888Z,8.40
2022-07-29T01:24:42.808Z,8.40
2022-07-29T01:25:14.894Z,8.40
2022-07-29T01:25:45.968Z,8.40
2022-07-29T01:26:20.659Z,8.40
2022-07-29T01:26:49.811Z,8.61
2022-07-29T01:27:23.626Z,8.61
2022-07-29T01:27:53.735Z,8.40
2022-07-29T01:28:26.363Z,8.40
2022-07-29T01:28:58.753Z,8.40
2022-07-29T01:29:38.886Z,8.40
2022-07-29T01:30:02.193Z,8.40
2022-07-29T01:30:34.746Z,8.40
2022-07-29T01:31:05.606Z,8.40
2022-07-29T01:31:40.284Z,8.40
2022-07-29T01:32:09.450Z,8.40
2022-07-29T01:32:42.491Z,8.40
2022-07-29T01:33:13.357Z,8.40
2022-07-29T01:33:46.250Z,8.40
2022-07-29T01:34:18.094Z,8.40
2022-07-29T01:34:50.182Z,8.40
2022-07-29T01:35:22.941Z,8.40
2022-07-29T01:35:53.993Z,8.40
2022-07-29T01:36:25.298Z,8.30
2022-07-29T01:36:58.210Z,8.30
2022-07-29T01:37:29.221Z,8.30
2022-07-29T01:38:02.127Z,8.30
2022-07-29T01:38:33.201Z,8.30
2022-07-29T01:39:06.016Z,8.30
2022-07-29T01:39:37.042Z,8.30
2022-07-29T01:40:10.347Z,8.30
2022-07-29T01:40:41.166Z,8.30
2022-07-29T01:41:14.819Z,8.30
2022-07-29T01:41:45.077Z,8.30
2022-07-29T01:42:18.787Z,8.30
2022-07-29T01:42:49.065Z,8.30
2022-07-29T01:43:21.695Z,8.30
2022-07-29T01:43:52.934Z,8.19
2022-07-29T01:44:25.808Z,8.19
2022-07-29T01:44:56.852Z,8.19
2022-07-29T01:45:30.365Z,8.19
2022-07-29T01:46:00.789Z,8.19
2022-07-29T01:46:38.941Z,8.19
2022-07-29T01:47:05.015Z,8.19
2022-07-29T01:47:37.835Z,8.19
2022-07-29T01:48:10.603Z,8.19
2022-07-29T01:48:41.659Z,8.19
2022-07-29T01:49:13.098Z,8.40
2022-07-29T01:49:46.373Z,8.40
2022-07-29T01:50:17.114Z,8.50
2022-07-29T01:50:49.917Z,8.50
2022-07-29T01:51:20.680Z,8.50
2022-07-29T01:51:53.443Z,8.50
2022-07-29T01:52:25.491Z,8.50
2022-07-29T01:52:58.522Z,8.50
2022-07-29T01:53:28.537Z,8.71
2022-07-29T01:54:01.622Z,8.71
2022-07-29T01:54:32.516Z,8.71
2022-07-29T01:55:05.894Z,8.71
2022-07-29T01:55:36.592Z,8.71
2022-07-29T01:56:09.326Z,8.71
2022-07-29T01:56:40.495Z,8.71
2022-07-29T01:57:13.206Z,8.71
2022-07-29T01:57:45.411Z,8.71
2022-07-29T01:58:17.261Z,8.71
2022-07-29T01:58:48.403Z,8.71
2022-07-29T01:59:21.391Z,8.71
2022-07-29T01:59:52.232Z,8.71
2022-07-29T02:00:25.649Z,8.71
2022-07-29T02:00:56.185Z,8.71
2022-07-29T02:01:29.214Z,8.71
2022-07-29T02:02:01.328Z,8.71
2022-07-29T02:02:32.929Z,8.71
2022-07-29T02:03:06.194Z,8.71
2022-07-29T02:03:36.993Z,8.71
2022-07-29T02:04:09.085Z,8.71
2022-07-29T02:04:42.138Z,8.71
2022-07-29T02:05:12.482Z,8.71
2022-07-29T02:05:44.909Z,8.71
2022-07-29T02:06:16.010Z,8.71
2022-07-29T02:06:49.861Z,8.71
2022-07-29T02:07:22.219Z,8.60
2022-07-29T02:07:52.787Z,8.60
2022-07-29T02:08:23.885Z,8.50
2022-07-29T02:08:56.727Z,8.50
2022-07-29T02:09:28.002Z,8.39
2022-07-29T02:10:01.033Z,8.39
2022-07-29T02:10:31.937Z,8.39
2022-07-29T02:11:04.824Z,8.39
2022-07-29T02:11:36.456Z,8.39
2022-07-29T02:12:08.590Z,8.39
2022-07-29T02:12:39.759Z,8.39
2022-07-29T02:13:12.708Z,8.39
2022-07-29T02:13:43.744Z,8.39
2022-07-29T02:14:16.914Z,8.39
2022-07-29T02:14:47.578Z,8.39
2022-07-29T02:15:21.064Z,8.39
2022-07-29T02:15:51.830Z,8.35
2022-07-29T02:16:24.607Z,8.35
2022-07-29T02:16:56.664Z,8.35
2022-07-29T02:17:28.372Z,8.35
2022-07-29T02:17:59.631Z,8.35
2022-07-29T02:18:33.191Z,8.35
2022-07-29T02:19:03.514Z,8.35
2022-07-29T02:19:36.854Z,8.35
2022-07-29T02:20:07.814Z,8.35
2022-07-29T02:20:40.303Z,8.35
2022-07-29T02:21:15.025Z,8.35
2022-07-29T02:21:45.833Z,8.35
2022-07-29T02:22:15.269Z,8.14
2022-07-29T02:22:49.078Z,8.14
2022-07-29T02:23:20.401Z,8.35
2022-07-29T02:23:52.078Z,8.35
2022-07-29T02:24:23.343Z,8.14
2022-07-29T02:24:56.080Z,8.14
2022-07-29T02:25:36.895Z,8.14
2022-07-29T02:26:01.400Z,8.14
2022-07-29T02:26:31.972Z,8.14
2022-07-29T02:27:04.282Z,8.14
2022-07-29T02:27:36.241Z,8.03
2022-07-29T02:28:08.303Z,8.03
2022-07-29T02:28:39.016Z,8.24
2022-07-29T02:29:12.874Z,8.24
2022-07-29T02:29:43.017Z,8.24
2022-07-29T02:30:16.573Z,8.24
2022-07-29T02:30:47.187Z,8.35
2022-07-29T02:31:20.805Z,8.35
2022-07-29T02:31:50.983Z,8.35
2022-07-29T02:32:23.760Z,8.35
2022-07-29T02:32:54.927Z,8.35
2022-07-29T02:33:27.826Z,8.35
2022-07-29T02:33:58.880Z,8.24
2022-07-29T02:34:31.811Z,8.24
2022-07-29T02:35:03.075Z,8.35
2022-07-29T02:35:36.468Z,8.35
2022-07-29T02:36:07.481Z,8.35
2022-07-29T02:36:39.738Z,8.35
2022-07-29T02:37:10.785Z,8.24
2022-07-29T02:37:43.522Z,8.24
2022-07-29T02:38:14.758Z,8.24
2022-07-29T02:38:47.562Z,8.24
2022-07-29T02:39:18.636Z,8.35
2022-07-29T02:39:53.305Z,8.35
2022-07-29T02:40:22.977Z,8.35
2022-07-29T02:40:55.606Z,8.35
2022-07-29T02:41:26.522Z,8.35
2022-07-29T02:41:59.460Z,8.35
2022-07-29T02:42:30.651Z,8.35
2022-07-29T02:43:03.053Z,8.35
2022-07-29T02:43:34.547Z,8.35
2022-07-29T02:44:07.421Z,8.35
2022-07-29T02:44:38.526Z,8.03
2022-07-29T02:45:12.896Z,8.03
2022-07-29T02:45:42.440Z,8.03
2022-07-29T02:46:28.979Z,8.03
2022-07-29T02:46:46.376Z,8.03
2022-07-29T02:47:19.277Z,8.03
2022-07-29T02:47:50.259Z,8.03
2022-07-29T02:48:23.225Z,8.03
2022-07-29T02:48:54.546Z,8.03
2022-07-29T02:49:27.400Z,8.03
2022-07-29T02:49:58.309Z,8.03
2022-07-29T02:50:32.147Z,8.03
2022-07-29T02:51:02.204Z,8.24
2022-07-29T02:51:43.419Z,8.24
2022-07-29T02:52:06.154Z,8.24
2022-07-29T02:52:38.948Z,8.24
2022-07-29T02:53:10.679Z,8.24
2022-07-29T02:53:44.085Z,8.24
2022-07-29T02:54:14.340Z,8.24
2022-07-29T02:54:47.050Z,8.24
2022-07-29T02:55:18.205Z,8.24
2022-07-29T02:55:50.896Z,8.24
2022-07-29T02:56:21.850Z,8.14
2022-07-29T02:56:54.884Z,8.14
2022-07-29T02:57:25.977Z,8.14
2022-07-29T02:57:59.325Z,8.14
2022-07-29T02:58:29.894Z,8.14
2022-07-29T02:59:02.724Z,8.14
2022-07-29T02:59:35.499Z,8.14
2022-07-29T03:00:07.174Z,8.14
2022-07-29T03:00:37.870Z,8.14
2022-07-29T03:01:11.741Z,8.14
2022-07-29T03:01:41.699Z,8.02
2022-07-29T03:02:14.658Z,8.02
2022-07-29T03:02:45.614Z,8.02
2022-07-29T03:03:19.570Z,8.02
2022-07-29T03:03:49.739Z,8.02
2022-07-29T03:04:22.544Z,8.02
2022-07-29T03:04:53.662Z,8.02
2022-07-29T03:05:27.505Z,8.02
2022-07-29T03:05:57.583Z,8.02
2022-07-29T03:06:38.424Z,8.02
2022-07-29T03:07:01.456Z,8.23
2022-07-29T03:07:34.782Z,8.23
2022-07-29T03:08:06.319Z,7.92
2022-07-29T03:08:40.515Z,7.92
2022-07-29T03:09:13.292Z,7.92
2022-07-29T03:09:46.233Z,7.92
2022-07-29T03:10:13.871Z,7.92
2022-07-29T03:10:46.230Z,7.92
2022-07-29T03:11:18.357Z,7.92
2022-07-29T03:11:51.069Z,7.92
2022-07-29T03:12:21.615Z,7.92
2022-07-29T03:12:54.131Z,7.92
2022-07-29T03:13:25.237Z,7.92
2022-07-29T03:13:58.197Z,7.92
2022-07-29T03:14:29.174Z,7.92
2022-07-29T03:15:02.521Z,7.92
2022-07-29T03:15:33.093Z,7.92
2022-07-29T03:16:06.245Z,7.92
2022-07-29T03:16:40.870Z,7.92
2022-07-29T03:17:10.011Z,7.92
2022-07-29T03:17:41.090Z,7.92
2022-07-29T03:18:14.017Z,7.92
2022-07-29T03:18:45.079Z,7.87
2022-07-29T03:19:17.888Z,7.87
2022-07-29T03:19:48.992Z,7.87
2022-07-29T03:20:22.016Z,7.87
2022-07-29T03:20:53.888Z,7.87
2022-07-29T03:21:25.975Z,7.87
2022-07-29T03:21:56.829Z,7.87
2022-07-29T03:22:30.706Z,7.87
2022-07-29T03:23:00.777Z,8.08
2022-07-29T03:23:35.350Z,8.08
2022-07-29T03:24:10.287Z,8.08
2022-07-29T03:24:37.594Z,8.08
2022-07-29T03:25:09.656Z,8.08
2022-07-29T03:25:41.555Z,8.08
2022-07-29T03:26:12.785Z,8.08
2022-07-29T03:26:46.967Z,8.08
2022-07-29T03:27:16.646Z,8.08
2022-07-29T03:27:49.599Z,8.08
2022-07-29T03:28:20.608Z,8.18
2022-07-29T03:28:53.515Z,8.18
2022-07-29T03:29:24.641Z,8.08
2022-07-29T03:29:57.585Z,8.08
2022-07-29T03:30:32.337Z,8.18
2022-07-29T03:31:17.996Z,7.97
2022-07-29T03:31:50.950Z,7.97
2022-07-29T03:32:25.333Z,7.97
2022-07-29T03:32:52.637Z,7.97
2022-07-29T03:33:24.498Z,7.97
2022-07-29T03:34:13.360Z,7.97
2022-07-29T03:34:44.380Z,7.97
2022-07-29T03:35:16.702Z,7.97
2022-07-29T03:35:48.224Z,7.87
2022-07-29T03:36:20.294Z,7.87
2022-07-29T03:36:52.122Z,7.97
2022-07-29T03:37:24.211Z,7.97
2022-07-29T03:37:58.159Z,7.87
2022-07-29T03:38:31.138Z,7.87
2022-07-29T03:39:00.235Z,7.87
2022-07-29T03:39:32.052Z,7.87
2022-07-29T03:40:14.324Z,7.87
2022-07-29T03:40:36.217Z,7.87
2022-07-29T03:41:08.176Z,7.87
2022-07-29T03:41:41.727Z,7.87
2022-07-29T03:42:11.975Z,7.87
2022-07-29T03:42:44.048Z,7.87
2022-07-29T03:43:16.809Z,7.96
2022-07-29T03:43:49.511Z,7.96
2022-07-29T03:44:21.866Z,7.96
2022-07-29T03:44:51.926Z,7.96
2022-07-29T03:45:25.468Z,7.96
2022-07-29T03:45:55.965Z,7.96
2022-07-29T03:46:29.032Z,8.16
2022-07-29T03:47:00.067Z,8.16
2022-07-29T03:47:49.796Z,8.16
2022-07-29T03:48:03.802Z,8.16
2022-07-29T03:48:36.691Z,8.16
2022-07-29T03:49:07.933Z,8.16
2022-07-29T03:49:41.625Z,8.35
2022-07-29T03:50:12.177Z,8.35
2022-07-29T03:50:44.836Z,8.16
2022-07-29T03:51:19.821Z,8.16
2022-07-29T03:51:48.626Z,8.16
2022-07-29T03:52:19.604Z,8.16
2022-07-29T03:52:52.515Z,8.16
2022-07-29T03:53:24.579Z,8.16
2022-07-29T03:53:56.561Z,8.16
2022-07-29T03:54:27.472Z,8.16
2022-07-29T03:55:00.930Z,8.05
2022-07-29T03:55:31.580Z,8.05
2022-07-29T03:56:04.742Z,8.16
2022-07-29T03:56:35.552Z,8.16
2022-07-29T03:57:08.223Z,8.05
2022-07-29T03:57:39.491Z,8.05
2022-07-29T03:58:12.158Z,8.05
2022-07-29T03:58:45.915Z,8.05
2022-07-29T03:59:16.275Z,8.05
2022-07-29T03:59:47.316Z,8.05
2022-07-29T04:00:20.708Z,8.05
2022-07-29T04:00:52.267Z,8.05
2022-07-29T04:01:24.315Z,8.05
2022-07-29T04:01:55.250Z,8.05
2022-07-29T04:02:30.686Z,7.85
2022-07-29T04:02:59.372Z,7.85
2022-07-29T04:03:32.141Z,7.85
2022-07-29T04:04:03.358Z,7.85
2022-07-29T04:04:36.675Z,8.05
2022-07-29T04:05:07.625Z,8.05
2022-07-29T04:05:39.947Z,8.05
2022-07-29T04:06:11.041Z,8.05
2022-07-29T04:06:44.120Z,8.05
2022-07-29T04:07:14.983Z,8.05
2022-07-29T04:07:47.963Z,8.20
2022-07-29T04:08:18.913Z,8.20
2022-07-29T04:08:52.784Z,8.20
2022-07-29T04:09:22.872Z,8.20
2022-07-29T04:09:55.824Z,8.20
2022-07-29T04:10:31.898Z,8.20
2022-07-29T04:10:59.581Z,8.20
2022-07-29T04:11:30.974Z,8.20
2022-07-29T04:12:07.971Z,8.46
2022-07-29T04:12:35.010Z,8.46
2022-07-29T04:13:07.789Z,8.46
2022-07-29T04:13:38.664Z,8.46
2022-07-29T04:14:12.028Z,8.46
2022-07-29T04:14:42.714Z,8.46
2022-07-29T04:15:16.080Z,8.46
2022-07-29T04:15:46.683Z,8.46
2022-07-29T04:16:19.667Z,8.56
2022-07-29T04:16:50.729Z,8.56
2022-07-29T04:17:23.556Z,8.56
2022-07-29T04:17:54.609Z,8.56
2022-07-29T04:18:27.333Z,8.56
2022-07-29T04:18:58.626Z,8.56
2022-07-29T04:19:32.678Z,8.68
2022-07-29T04:20:02.757Z,8.68
2022-07-29T04:20:36.342Z,8.68
2022-07-29T04:21:06.462Z,8.68
2022-07-29T04:21:39.423Z,8.68
2022-07-29T04:22:10.343Z,8.68
2022-07-29T04:22:43.206Z,8.78
2022-07-29T04:23:14.301Z,8.78
2022-07-29T04:23:52.900Z,8.78
2022-07-29T04:24:18.885Z,8.78
2022-07-29T04:24:52.025Z,8.78
2022-07-29T04:25:23.639Z,8.78
2022-07-29T04:25:55.429Z,8.78
2022-07-29T04:26:26.231Z,8.78
2022-07-29T04:26:59.226Z,8.78
2022-07-29T04:27:30.158Z,8.78
2022-07-29T04:28:03.297Z,8.78
2022-07-29T04:28:35.074Z,8.78
2022-07-29T04:29:07.077Z,8.78
2022-07-29T04:29:38.048Z,8.78
2022-07-29T04:30:12.411Z,8.78
2022-07-29T04:30:42.266Z,8.78
2022-07-29T04:31:14.981Z,8.78
2022-07-29T04:31:47.082Z,8.78
2022-07-29T04:32:18.737Z,8.57
2022-07-29T04:32:57.574Z,8.57
2022-07-29T04:33:22.766Z,8.57
2022-07-29T04:33:53.953Z,8.57
2022-07-29T04:34:28.000Z,8.57
2022-07-29T04:34:57.824Z,8.57
2022-07-29T04:35:30.993Z,8.57
2022-07-29T04:36:02.682Z,8.57
2022-07-29T04:36:34.813Z,8.57
2022-07-29T04:37:05.859Z,8.57
2022-07-29T04:37:38.517Z,8.68
2022-07-29T04:38:15.474Z,8.68
2022-07-29T04:38:42.481Z,8.68
2022-07-29T04:39:15.363Z,8.68
2022-07-29T04:39:47.695Z,8.68
2022-07-29T04:40:17.927Z,8.68
2022-07-29T04:40:52.416Z,8.68
2022-07-29T04:41:21.590Z,8.68
2022-07-29T04:41:54.989Z,8.68
2022-07-29T04:42:27.560Z,8.68
2022-07-29T04:42:58.469Z,8.68
2022-07-29T04:43:30.520Z,8.68
2022-07-29T04:44:02.366Z,8.73
2022-07-29T04:44:33.640Z,8.73
2022-07-29T04:45:06.909Z,8.73
2022-07-29T04:45:37.445Z,8.73
2022-07-29T04:46:10.530Z,8.83
2022-07-29T04:46:41.416Z,8.83
2022-07-29T04:47:14.214Z,8.83
2022-07-29T04:47:45.326Z,8.83
2022-07-29T04:48:18.258Z,8.83
2022-07-29T04:48:49.481Z,8.83
2022-07-29T04:49:22.258Z,8.95
2022-07-29T04:49:53.202Z,8.95
2022-07-29T04:50:26.361Z,8.95
2022-07-29T04:50:57.241Z,8.95
2022-07-29T04:51:30.056Z,8.95
2022-07-29T04:52:01.337Z,8.95
2022-07-29T04:52:33.978Z,8.95
2022-07-29T04:53:05.146Z,8.95
2022-07-29T04:53:38.503Z,8.95
2022-07-29T04:54:09.247Z,8.95
2022-07-29T04:54:57.604Z,8.95
2022-07-29T04:55:30.294Z,8.95
2022-07-29T04:56:01.022Z,8.86
2022-07-29T04:56:33.009Z,8.86
2022-07-29T04:57:04.933Z,8.86
2022-07-29T04:57:36.939Z,8.86
2022-07-29T04:58:08.777Z,8.86
2022-07-29T04:58:43.095Z,8.86
2022-07-29T04:59:13.206Z,8.86
2022-07-29T04:59:44.809Z,8.86
2022-07-29T05:00:17.455Z,8.86
2022-07-29T05:00:48.712Z,8.86
2022-07-29T05:01:21.004Z,8.86
2022-07-29T05:01:52.762Z,8.86
2022-07-29T05:02:24.891Z,8.66
2022-07-29T05:02:56.904Z,8.66
2022-07-29T05:03:28.649Z,8.66
2022-07-29T05:04:01.317Z,8.66
2022-07-29T05:04:32.568Z,8.66
2022-07-29T05:05:04.952Z,8.66
2022-07-29T05:05:36.695Z,8.66
2022-07-29T05:06:08.558Z,8.66
2022-07-29T05:06:40.590Z,8.77
2022-07-29T05:07:12.599Z,8.77
2022-07-29T05:07:44.556Z,8.66
2022-07-29T05:08:16.536Z,8.66
2022-07-29T05:08:48.480Z,8.77
2022-07-29T05:09:20.515Z,8.77
2022-07-29T05:09:52.335Z,8.66
2022-07-29T05:10:25.263Z,8.66
2022-07-29T05:10:56.295Z,8.66
2022-07-29T05:11:30.509Z,8.66
2022-07-29T05:12:00.236Z,8.77
2022-07-29T05:12:32.305Z,8.77
2022-07-29T05:13:04.350Z,8.66
2022-07-29T05:13:46.154Z,8.66
2022-07-29T05:14:09.801Z,8.77
2022-07-29T05:14:40.122Z,8.77
2022-07-29T05:15:13.097Z,8.66
2022-07-29T05:15:44.371Z,8.66
2022-07-29T05:16:16.226Z,8.77
2022-07-29T05:16:48.215Z,8.77
2022-07-29T05:17:21.058Z,8.77
2022-07-29T05:17:52.104Z,8.77
2022-07-29T05:18:26.234Z,8.56
2022-07-29T05:18:57.217Z,8.56
2022-07-29T05:19:28.120Z,8.56
2022-07-29T05:20:01.558Z,8.56
2022-07-29T05:20:32.073Z,8.56
2022-07-29T05:21:06.034Z,8.56
2022-07-29T05:21:35.918Z,8.56
2022-07-29T05:22:11.606Z,8.56
2022-07-29T05:22:39.914Z,8.60
2022-07-29T05:23:12.979Z,8.60
2022-07-29T05:23:43.834Z,8.60
2022-07-29T05:24:17.203Z,8.60
2022-07-29T05:24:47.997Z,8.60
2022-07-29T05:25:20.980Z,8.60
2022-07-29T05:25:51.884Z,8.60
2022-07-29T05:26:24.553Z,8.60
2022-07-29T05:26:56.627Z,8.71
2022-07-29T05:27:28.544Z,8.71
2022-07-29T05:27:59.725Z,8.71
2022-07-29T05:28:32.538Z,8.71
2022-07-29T05:29:03.586Z,8.71
2022-07-29T05:29:44.703Z,8.71
2022-07-29T05:30:08.158Z,8.83
2022-07-29T05:30:40.561Z,8.83
2022-07-29T05:31:13.018Z,8.83
2022-07-29T05:31:47.547Z,8.83
2022-07-29T05:32:16.237Z,8.93
2022-07-29T05:32:48.389Z,8.93
2022-07-29T05:33:35.064Z,8.93
2022-07-29T05:33:53.321Z,8.93
2022-07-29T05:34:23.492Z,9.04
2022-07-29T05:34:56.732Z,9.04
2022-07-29T05:35:29.604Z,9.04
2022-07-29T05:36:01.140Z,9.04
2022-07-29T05:36:31.248Z,9.04
2022-07-29T05:37:04.259Z,9.04
2022-07-29T05:37:36.334Z,9.08
2022-07-29T05:38:08.151Z,9.08
2022-07-29T05:38:40.026Z,9.19
2022-07-29T05:39:11.939Z,9.19
2022-07-29T05:39:48.705Z,9.19
2022-07-29T05:40:16.371Z,9.19
2022-07-29T05:40:47.145Z,9.30
2022-07-29T05:41:21.001Z,9.30
2022-07-29T05:41:52.244Z,9.09
2022-07-29T05:42:24.126Z,9.09
2022-07-29T05:42:57.058Z,9.20
2022-07-29T05:43:28.899Z,9.20
2022-07-29T05:43:59.019Z,9.52
2022-07-29T05:44:33.661Z,9.52
2022-07-29T05:45:03.529Z,9.35
2022-07-29T05:45:36.185Z,9.35
2022-07-29T05:46:07.060Z,9.46
2022-07-29T05:46:39.943Z,9.46
2022-07-29T05:47:11.115Z,9.57
2022-07-29T05:47:43.799Z,9.57
2022-07-29T05:48:14.955Z,9.57
2022-07-29T05:48:47.765Z,9.57
2022-07-29T05:49:27.000Z,9.68
2022-07-29T05:49:51.732Z,9.68
2022-07-29T05:50:23.075Z,9.57
2022-07-29T05:50:55.552Z,9.57
2022-07-29T05:51:26.702Z,9.62
2022-07-29T05:51:59.611Z,9.62
2022-07-29T05:52:31.451Z,9.62
2022-07-29T05:53:18.869Z,9.62
2022-07-29T05:53:36.252Z,9.72
2022-07-29T05:54:07.542Z,9.72
2022-07-29T05:54:39.456Z,9.72
2022-07-29T05:55:11.770Z,9.72
2022-07-29T05:55:42.701Z,9.62
2022-07-29T05:56:16.367Z,9.62
2022-07-29T05:56:46.858Z,9.62
2022-07-29T05:57:21.231Z,9.62
2022-07-29T05:57:51.403Z,9.73
2022-07-29T05:58:23.439Z,9.73
2022-07-29T05:58:54.423Z,9.73
2022-07-29T05:59:30.327Z,9.73
2022-07-29T05:59:58.356Z,9.62
2022-07-29T06:00:31.858Z,9.62
2022-07-29T06:01:02.281Z,9.62
2022-07-29T06:01:35.619Z,9.62
2022-07-29T06:02:06.466Z,9.62
2022-07-29T06:02:39.252Z,9.62
2022-07-29T06:03:12.422Z,9.67
2022-07-29T06:03:43.233Z,9.67
2022-07-29T06:04:14.767Z,9.77
2022-07-29T06:04:48.953Z,9.77
2022-07-29T06:05:19.433Z,9.89
2022-07-29T06:05:51.954Z,9.89
2022-07-29T06:06:26.563Z,9.89
2022-07-29T06:06:55.139Z,9.89
2022-07-29T06:07:26.047Z,9.99
2022-07-29T06:07:58.997Z,9.99
2022-07-29T06:08:30.883Z,9.99
2022-07-29T06:09:12.222Z,9.99
2022-07-29T06:09:36.167Z,9.87
2022-07-29T06:10:07.102Z,9.87
2022-07-29T06:10:38.055Z,9.92
2022-07-29T06:11:10.832Z,9.92
2022-07-29T06:11:41.988Z,10.02
2022-07-29T06:12:14.742Z,10.02
2022-07-29T06:12:45.926Z,10.13
2022-07-29T06:13:18.707Z,10.13
2022-07-29T06:13:49.883Z,10.34
2022-07-29T06:14:23.833Z,10.34
2022-07-29T06:14:54.344Z,10.34
2022-07-29T06:15:27.376Z,10.34
2022-07-29T06:15:57.730Z,10.39
2022-07-29T06:16:30.842Z,10.39
2022-07-29T06:17:01.722Z,10.61
2022-07-29T06:17:34.713Z,10.61
2022-07-29T06:18:05.811Z,10.61
2022-07-29T06:18:44.007Z,10.61
2022-07-29T06:19:09.617Z,10.71
2022-07-29T06:19:41.630Z,10.71
2022-07-29T06:20:15.332Z,10.64
2022-07-29T06:20:46.551Z,10.64
2022-07-29T06:21:18.448Z,10.64
2022-07-29T06:21:49.454Z,10.64
2022-07-29T06:22:22.307Z,10.41
2022-07-29T06:22:53.251Z,10.41
2022-07-29T06:23:26.257Z,10.51
2022-07-29T06:23:58.517Z,10.51
2022-07-29T06:24:30.192Z,10.51
2022-07-29T06:25:02.519Z,10.51
2022-07-29T06:25:34.320Z,10.51
2022-07-29T06:26:05.392Z,10.51
2022-07-29T06:26:40.010Z,10.63
2022-07-29T06:27:09.572Z,10.63
2022-07-29T06:27:42.110Z,10.38
2022-07-29T06:28:13.317Z,10.38
2022-07-29T06:28:48.210Z,10.14
2022-07-29T06:29:17.113Z,10.14
2022-07-29T06:29:50.056Z,10.38
2022-07-29T06:30:21.581Z,10.38
2022-07-29T06:30:54.105Z,10.38
2022-07-29T06:31:25.233Z,10.38
2022-07-29T06:31:57.862Z,10.38
2022-07-29T06:32:29.051Z,10.38
2022-07-29T06:33:02.288Z,10.38
2022-07-29T06:33:33.047Z,10.38
2022-07-29T06:34:05.766Z,10.49
2022-07-29T06:34:36.895Z,10.49
2022-07-29T06:35:39.412Z,10.49
2022-07-29T06:35:57.030Z,10.59
2022-07-29T06:36:28.863Z,10.59
2022-07-29T06:37:00.902Z,10.64
2022-07-29T06:37:33.703Z,10.64
2022-07-29T06:38:09.591Z,10.64
2022-07-29T06:38:40.600Z,10.64
2022-07-29T06:39:08.766Z,10.74
2022-07-29T06:39:40.828Z,10.74
2022-07-29T06:40:13.919Z,10.86
2022-07-29T06:40:44.797Z,10.86
2022-07-29T06:41:16.705Z,10.72
2022-07-29T06:41:48.661Z,10.72
2022-07-29T06:42:21.329Z,10.47
2022-07-29T06:42:52.612Z,10.47
2022-07-29T06:43:24.674Z,10.58
2022-07-29T06:43:56.905Z,10.58
2022-07-29T06:44:28.625Z,10.37
2022-07-29T06:45:03.890Z,10.37
2022-07-29T06:45:32.817Z,10.37
2022-07-29T06:46:04.648Z,10.37
2022-07-29T06:46:36.548Z,10.62
2022-07-29T06:47:08.318Z,10.62
2022-07-29T06:47:40.540Z,10.73
2022-07-29T06:48:12.314Z,10.73
2022-07-29T06:48:44.512Z,10.47
2022-07-29T06:49:16.577Z,10.47
2022-07-29T06:49:48.283Z,10.34
2022-07-29T06:50:20.698Z,10.34
2022-07-29T06:50:52.204Z,10.58
2022-07-29T06:51:24.406Z,10.58
2022-07-29T06:51:56.332Z,10.34
2022-07-29T06:52:29.166Z,10.34
2022-07-29T06:53:00.213Z,10.69
2022-07-29T06:53:32.088Z,10.69
2022-07-29T06:54:04.145Z,10.44
2022-07-29T06:54:35.998Z,10.44
2022-07-29T06:55:09.385Z,10.55
2022-07-29T06:55:40.162Z,10.55
2022-07-29T06:56:12.051Z,10.55
2022-07-29T06:56:44.134Z,10.55
2022-07-29T06:57:16.004Z,10.59
2022-07-29T06:57:48.156Z,10.59
2022-07-29T06:58:20.800Z,10.44
2022-07-29T06:58:51.989Z,10.44
2022-07-29T06:59:32.061Z,10.44
2022-07-29T06:59:55.835Z,10.44
2022-07-29T07:00:28.473Z,10.55
2022-07-29T07:00:59.794Z,10.55
2022-07-29T07:01:32.823Z,10.55
2022-07-29T07:02:03.794Z,10.55
2022-07-29T07:02:36.729Z,10.55
2022-07-29T07:03:09.830Z,10.55
2022-07-29T07:03:40.179Z,10.65
2022-07-29T07:04:11.778Z,10.65
2022-07-29T07:04:43.708Z,10.76
2022-07-29T07:05:16.080Z,10.76